createdAt,value
2019-05-19T00:00:27.030Z,11.65
2019-05-19T00:03:00.383Z,11.75
2019-05-19T00:05:34.794Z,11.48
2019-05-19T00:08:09.737Z,12.37
2019-05-19T00:10:43.100Z,12.33
2019-05-19T00:13:16.455Z,11.97
2019-05-19T00:15:51.015Z,11.73
2019-05-19T00:18:24.617Z,12.40
2019-05-19T00:20:59.575Z,12.78
2019-05-19T00:23:32.745Z,12.88
2019-05-19T00:26:06.128Z,12.15
2019-05-19T00:28:39.563Z,13.53
2019-05-19T00:31:12.943Z,15.60
2019-05-19T00:33:46.355Z,13.50
2019-05-19T00:36:19.800Z,14.13
2019-05-19T00:38:53.218Z,13.05
2019-05-19T00:41:26.611Z,13.10
2019-05-19T00:44:00.052Z,17.10
2019-05-19T00:46:34.962Z,12.85
2019-05-19T00:49:08.149Z,11.93
2019-05-19T00:51:41.489Z,12.20
2019-05-19T00:54:14.828Z,14.10
2019-05-19T00:56:49.777Z,15.10
2019-05-19T00:59:23.140Z,13.72
2019-05-19T01:01:56.468Z,13.20
2019-05-19T01:04:29.788Z,12.82
2019-05-19T01:07:03.105Z,16.77
2019-05-19T01:09:36.452Z,14.33
2019-05-19T01:12:09.761Z,14.15
2019-05-19T01:14:43.107Z,13.70
2019-05-19T01:17:16.417Z,14.18
2019-05-19T01:19:55.932Z,13.43
2019-05-19T01:22:24.805Z,14.18
2019-05-19T01:24:58.102Z,13.43
2019-05-19T01:27:31.439Z,15.35
2019-05-19T01:30:09.268Z,13.48
2019-05-19T01:32:42.646Z,13.58
2019-05-19T01:35:16.264Z,13.80
2019-05-19T01:37:49.634Z,13.90
2019-05-19T01:40:23.006Z,18.32
2019-05-19T01:42:56.321Z,14.53
2019-05-19T01:45:29.847Z,14.98
2019-05-19T01:48:03.170Z,14.45
2019-05-19T01:50:36.521Z,14.33
2019-05-19T01:53:09.827Z,15.08
2019-05-19T01:55:43.179Z,14.53
2019-05-19T01:58:17.559Z,15.38
2019-05-19T02:00:50.907Z,14.70
2019-05-19T02:03:24.227Z,18.40
2019-05-19T02:05:57.572Z,15.30
2019-05-19T02:08:30.930Z,14.28
2019-05-19T02:11:04.291Z,14.50
2019-05-19T02:13:37.609Z,13.98
2019-05-19T02:16:10.973Z,14.33
2019-05-19T02:18:44.292Z,14.58
2019-05-19T02:21:17.647Z,15.35
2019-05-19T02:23:51.017Z,19.00
2019-05-19T02:26:24.357Z,15.63
2019-05-19T02:28:57.665Z,14.90
2019-05-19T02:31:31.008Z,15.40
2019-05-19T02:34:04.323Z,14.80
2019-05-19T02:36:37.665Z,19.48
2019-05-19T02:39:10.977Z,15.40
2019-05-19T02:41:45.552Z,14.83
2019-05-19T02:44:18.881Z,15.38
2019-05-19T02:46:52.284Z,14.87
2019-05-19T02:49:26.054Z,19.23
2019-05-19T02:51:59.388Z,16.05
2019-05-19T02:54:32.737Z,15.35
2019-05-19T02:57:06.077Z,15.25
2019-05-19T02:59:39.463Z,16.02
2019-05-19T03:02:12.815Z,19.42
2019-05-19T03:04:46.127Z,14.85
2019-05-19T03:07:19.493Z,15.68
2019-05-19T03:09:52.796Z,15.58
2019-05-19T03:12:26.140Z,16.17
2019-05-19T03:14:59.453Z,18.57
2019-05-19T03:17:32.807Z,15.70
2019-05-19T03:20:06.144Z,15.30
2019-05-19T03:22:39.500Z,14.93
2019-05-19T03:25:14.345Z,16.12
2019-05-19T03:27:47.691Z,15.55
2019-05-19T03:30:21.019Z,16.02
2019-05-19T03:32:54.371Z,15.20
2019-05-19T03:35:27.502Z,14.58
2019-05-19T03:38:00.871Z,14.65
2019-05-19T03:40:34.202Z,15.93
2019-05-19T03:43:07.538Z,19.40
2019-05-19T03:45:40.860Z,16.32
2019-05-19T03:48:14.200Z,19.23
2019-05-19T03:50:47.548Z,15.88
2019-05-19T03:53:20.900Z,16.20
2019-05-19T03:55:54.185Z,19.35
2019-05-19T03:58:27.524Z,15.30
2019-05-19T04:01:00.879Z,19.17
2019-05-19T04:03:34.203Z,14.68
2019-05-19T04:06:07.510Z,14.47
2019-05-19T04:08:40.836Z,18.42
2019-05-19T04:11:14.150Z,15.23
2019-05-19T04:13:47.498Z,17.17
2019-05-19T04:16:20.815Z,15.83
2019-05-19T04:18:54.136Z,14.78
2019-05-19T04:21:27.472Z,15.53
2019-05-19T04:24:00.778Z,14.30
2019-05-19T04:26:34.148Z,15.15
2019-05-19T04:29:06.711Z,14.35
2019-05-19T04:31:39.910Z,15.58
2019-05-19T04:34:13.218Z,14.33
2019-05-19T04:36:47.650Z,14.38
2019-05-19T04:39:21.026Z,15.20
2019-05-19T04:41:54.378Z,19.27
2019-05-19T04:44:27.947Z,15.30
2019-05-19T04:47:01.287Z,14.60
2019-05-19T04:49:34.616Z,19.03
2019-05-19T04:52:08.210Z,15.55
2019-05-19T04:54:41.532Z,18.45
2019-05-19T04:57:14.879Z,15.55
2019-05-19T04:59:48.196Z,15.58
2019-05-19T05:02:21.573Z,17.32
2019-05-19T05:04:55.419Z,14.98
2019-05-19T05:07:28.743Z,13.72
2019-05-19T05:10:02.102Z,14.45
2019-05-19T05:12:35.413Z,14.13
2019-05-19T05:15:08.769Z,14.35
2019-05-19T05:17:42.094Z,19.37
2019-05-19T05:20:15.464Z,15.03
2019-05-19T05:22:48.626Z,14.00
2019-05-19T05:25:22.094Z,14.45
2019-05-19T05:27:55.483Z,14.78
2019-05-19T05:30:28.886Z,19.17
2019-05-19T05:33:02.271Z,16.80
2019-05-19T05:35:35.621Z,15.43
2019-05-19T05:38:09.005Z,14.65
2019-05-19T05:40:42.357Z,15.32
2019-05-19T05:43:15.695Z,16.10
2019-05-19T05:45:49.050Z,14.98
2019-05-19T05:48:22.377Z,15.85
2019-05-19T05:50:56.727Z,15.20
2019-05-19T05:53:30.058Z,15.08
2019-05-19T05:56:03.403Z,14.13
2019-05-19T05:58:36.729Z,19.05
2019-05-19T06:01:10.065Z,15.08
2019-05-19T06:03:43.380Z,17.82
2019-05-19T06:06:16.740Z,15.80
2019-05-19T06:08:50.045Z,13.28
2019-05-19T06:11:23.469Z,17.85
2019-05-19T06:13:56.836Z,14.00
2019-05-19T06:16:31.282Z,17.23
2019-05-19T06:19:04.634Z,13.60
2019-05-19T06:21:37.974Z,13.22
2019-05-19T06:24:11.333Z,16.00
2019-05-19T06:26:44.649Z,13.72
2019-05-19T06:29:18.025Z,12.78
2019-05-19T06:31:51.415Z,12.65
2019-05-19T06:34:24.773Z,13.15
2019-05-19T06:36:58.094Z,12.50
2019-05-19T06:39:31.446Z,13.95
2019-05-19T06:42:04.760Z,14.38
2019-05-19T06:44:38.091Z,16.00
2019-05-19T06:47:11.416Z,13.32
2019-05-19T06:49:44.778Z,13.22
2019-05-19T06:52:18.100Z,12.73
2019-05-19T06:54:52.632Z,16.37
2019-05-19T06:57:25.928Z,13.75
2019-05-19T06:59:59.283Z,16.35
2019-05-19T07:02:32.970Z,13.70
2019-05-19T07:05:06.566Z,12.93
2019-05-19T07:07:40.441Z,12.98
2019-05-19T07:10:13.804Z,11.95
2019-05-19T07:12:47.112Z,12.68
2019-05-19T07:15:20.473Z,14.45
2019-05-19T07:17:53.822Z,13.03
2019-05-19T07:20:27.214Z,12.25
2019-05-19T07:23:00.534Z,12.25
2019-05-19T07:25:34.070Z,12.13
2019-05-19T07:28:07.418Z,12.10
2019-05-19T07:30:40.781Z,11.95
2019-05-19T07:33:14.251Z,12.50
2019-05-19T07:35:47.572Z,12.75
2019-05-19T07:38:21.086Z,13.13
2019-05-19T07:40:54.446Z,12.43
2019-05-19T07:43:27.760Z,12.05
2019-05-19T07:46:01.111Z,12.20
2019-05-19T07:48:34.467Z,11.70
2019-05-19T07:51:07.816Z,11.83
2019-05-19T07:53:43.274Z,11.65
2019-05-19T07:56:16.230Z,12.28
2019-05-19T07:58:49.553Z,11.45
2019-05-19T08:01:22.932Z,12.00
2019-05-19T08:03:56.397Z,12.73
2019-05-19T08:06:31.393Z,11.35
2019-05-19T08:09:05.258Z,11.93
2019-05-19T08:11:38.625Z,10.95
2019-05-19T08:14:11.931Z,11.90
2019-05-19T08:16:45.276Z,10.93
2019-05-19T08:19:18.671Z,13.95
2019-05-19T08:21:51.972Z,12.25
2019-05-19T08:24:25.320Z,11.45
2019-05-19T08:26:58.652Z,10.82
2019-05-19T08:29:32.014Z,11.80
2019-05-19T08:32:05.342Z,11.48
2019-05-19T08:34:38.711Z,10.82
2019-05-19T08:37:12.043Z,12.13
2019-05-19T08:39:45.396Z,12.18
2019-05-19T08:42:18.834Z,11.12
2019-05-19T08:44:52.000Z,11.28
2019-05-19T08:47:25.354Z,13.15
2019-05-19T08:49:58.688Z,11.40
2019-05-19T08:52:32.032Z,13.47
2019-05-19T08:55:05.446Z,10.68
2019-05-19T08:57:38.769Z,12.43
2019-05-19T09:00:12.150Z,14.55
2019-05-19T09:02:45.482Z,11.10
2019-05-19T09:05:18.831Z,10.65
2019-05-19T09:07:52.162Z,10.50
2019-05-19T09:10:25.528Z,11.80
2019-05-19T09:12:58.858Z,13.25
2019-05-19T09:15:32.218Z,11.83
2019-05-19T09:18:05.562Z,11.65
2019-05-19T09:20:40.187Z,11.57
2019-05-19T09:23:13.560Z,11.40
2019-05-19T09:25:46.910Z,14.80
2019-05-19T09:28:20.289Z,18.83
2019-05-19T09:30:53.884Z,16.57
2019-05-19T09:33:28.402Z,15.80
2019-05-19T09:36:01.762Z,17.48
2019-05-19T09:38:35.102Z,18.00
2019-05-19T09:41:08.464Z,19.60
2019-05-19T09:43:41.798Z,16.70
2019-05-19T09:46:15.146Z,18.77
2019-05-19T09:48:48.511Z,16.70
2019-05-19T09:51:21.879Z,16.05
2019-05-19T09:53:55.214Z,18.05
2019-05-19T09:56:28.575Z,16.32
2019-05-19T09:59:01.906Z,15.65
2019-05-19T10:01:35.223Z,15.20
2019-05-19T10:04:08.627Z,14.53
2019-05-19T10:06:42.177Z,13.50
2019-05-19T10:09:18.305Z,17.30
2019-05-19T10:12:03.904Z,13.22
2019-05-19T10:14:37.287Z,16.37
2019-05-19T10:17:10.662Z,13.30
2019-05-19T10:19:44.003Z,12.03
2019-05-19T10:22:19.112Z,15.75
2019-05-19T10:25:10.416Z,12.45
2019-05-19T10:27:27.463Z,13.10
2019-05-19T10:30:00.801Z,13.13
2019-05-19T10:32:34.214Z,12.53
2019-05-19T10:35:07.543Z,13.62
2019-05-19T10:37:40.863Z,11.83
2019-05-19T10:40:14.214Z,13.05
2019-05-19T10:42:47.576Z,12.53
2019-05-19T10:45:21.419Z,12.20
2019-05-19T10:47:54.738Z,11.40
2019-05-19T10:50:28.097Z,11.80
2019-05-19T10:53:01.430Z,11.97
2019-05-19T10:55:36.786Z,11.80
2019-05-19T10:58:09.938Z,11.08
2019-05-19T11:00:43.352Z,12.13
2019-05-19T11:03:16.685Z,13.45
2019-05-19T11:05:50.051Z,10.93
2019-05-19T11:08:23.366Z,11.33
2019-05-19T11:10:56.818Z,11.80
2019-05-19T11:13:30.150Z,10.72
2019-05-19T11:16:03.509Z,13.93
2019-05-19T11:18:37.007Z,11.55
2019-05-19T11:21:10.426Z,13.28
2019-05-19T11:23:43.740Z,13.05
2019-05-19T11:26:17.099Z,13.75
2019-05-19T11:28:50.676Z,13.80
2019-05-19T11:31:24.035Z,12.28
2019-05-19T11:33:58.426Z,12.35
2019-05-19T11:36:31.836Z,14.93
2019-05-19T11:39:07.076Z,12.20
2019-05-19T11:41:40.455Z,14.65
2019-05-19T11:44:13.947Z,17.30
2019-05-19T11:46:47.286Z,14.85
2019-05-19T11:49:20.695Z,14.15
2019-05-19T11:51:54.050Z,13.62
2019-05-19T11:54:27.615Z,13.13
2019-05-19T11:57:01.049Z,14.70
2019-05-19T11:59:34.405Z,12.58
2019-05-19T12:02:07.815Z,12.30
2019-05-19T12:04:41.151Z,16.12
2019-05-19T12:07:14.521Z,11.83
2019-05-19T12:09:48.001Z,11.00
2019-05-19T12:12:21.411Z,13.03
2019-05-19T12:14:54.770Z,15.80
2019-05-19T12:17:28.310Z,18.05
2019-05-19T12:20:01.538Z,15.95
2019-05-19T12:22:34.878Z,14.53
2019-05-19T12:25:08.328Z,22.77
2019-05-19T12:27:41.905Z,19.70
2019-05-19T12:30:18.474Z,20.82
2019-05-19T12:32:51.877Z,20.77
2019-05-19T12:35:25.530Z,21.45
2019-05-19T12:37:58.838Z,29.87
2019-05-19T12:40:33.077Z,23.10
2019-05-19T12:43:06.422Z,22.93
2019-05-19T12:45:39.849Z,22.95
2019-05-19T12:48:13.165Z,25.55
2019-05-19T12:50:46.519Z,28.87
2019-05-19T12:53:19.837Z,25.57
2019-05-19T12:55:53.163Z,24.72
2019-05-19T12:58:26.502Z,23.92
2019-05-19T13:01:00.058Z,25.60
2019-05-19T13:03:33.668Z,26.23
2019-05-19T13:06:07.084Z,33.20
2019-05-19T13:08:40.393Z,27.67
2019-05-19T13:11:13.745Z,28.15
2019-05-19T13:13:47.209Z,27.42
2019-05-19T13:16:20.592Z,26.57
2019-05-19T13:18:53.938Z,32.88
2019-05-19T13:21:27.318Z,24.95
2019-05-19T13:24:00.659Z,22.65
2019-05-19T13:26:34.003Z,29.05
2019-05-19T13:29:07.321Z,20.92
2019-05-19T13:31:40.825Z,21.17
2019-05-19T13:34:15.217Z,22.37
2019-05-19T13:36:49.639Z,20.30
2019-05-19T13:39:22.949Z,22.48
2019-05-19T13:41:56.122Z,22.58
2019-05-19T13:44:29.455Z,22.05
2019-05-19T13:47:02.813Z,29.35
2019-05-19T13:49:36.176Z,22.15
2019-05-19T13:52:09.525Z,18.80
2019-05-19T13:54:42.834Z,24.65
2019-05-19T13:57:16.220Z,18.92
2019-05-19T13:59:49.553Z,21.27
2019-05-19T14:02:23.976Z,21.60
2019-05-19T14:04:58.973Z,19.30
2019-05-19T14:07:32.335Z,20.15
2019-05-19T14:10:06.036Z,19.10
2019-05-19T14:12:39.395Z,19.42
2019-05-19T14:15:12.750Z,26.85
2019-05-19T14:17:46.208Z,21.62
2019-05-19T14:20:19.539Z,19.17
2019-05-19T14:22:52.972Z,24.27
2019-05-19T14:25:26.279Z,19.40
2019-05-19T14:27:59.637Z,22.90
2019-05-19T14:30:32.976Z,19.45
2019-05-19T14:33:06.343Z,19.07
2019-05-19T14:35:39.670Z,18.10
2019-05-19T14:38:13.018Z,17.15
2019-05-19T14:40:47.943Z,16.40
2019-05-19T14:43:23.801Z,21.48
2019-05-19T14:45:57.221Z,16.62
2019-05-19T14:48:30.587Z,16.35
2019-05-19T14:51:05.540Z,18.77
2019-05-19T14:53:38.867Z,14.93
2019-05-19T14:56:12.277Z,16.52
2019-05-19T14:58:45.620Z,14.93
2019-05-19T15:01:18.978Z,14.60
2019-05-19T15:03:52.356Z,15.28
2019-05-19T15:06:25.679Z,13.65
2019-05-19T15:08:59.269Z,14.30
2019-05-19T15:11:32.866Z,17.07
2019-05-19T15:14:07.190Z,14.80
2019-05-19T15:16:40.502Z,13.93
2019-05-19T15:19:13.857Z,15.55
2019-05-19T15:21:47.169Z,13.85
2019-05-19T15:24:20.545Z,13.58
2019-05-19T15:26:54.589Z,16.50
2019-05-19T15:29:28.241Z,14.07
2019-05-19T15:32:01.852Z,14.07
2019-05-19T15:34:35.374Z,12.88
2019-05-19T15:37:08.681Z,14.07
2019-05-19T15:39:42.034Z,14.55
2019-05-19T15:42:15.335Z,13.62
2019-05-19T15:44:48.669Z,13.32
2019-05-19T15:47:22.015Z,12.88
2019-05-19T15:49:55.339Z,15.43
2019-05-19T15:52:28.628Z,12.47
2019-05-19T15:55:02.056Z,14.80
2019-05-19T15:57:35.430Z,12.68
2019-05-19T16:00:08.931Z,13.15
2019-05-19T16:02:42.441Z,12.73
2019-05-19T16:05:15.781Z,13.58
2019-05-19T16:07:49.191Z,13.43
2019-05-19T16:10:22.567Z,13.15
2019-05-19T16:12:55.912Z,13.13
2019-05-19T16:15:29.258Z,12.93
2019-05-19T16:18:02.750Z,12.35
2019-05-19T16:20:36.175Z,12.30
2019-05-19T16:23:09.500Z,12.58
2019-05-19T16:25:42.858Z,12.43
2019-05-19T16:28:28.648Z,12.98
2019-05-19T16:30:53.012Z,11.60
2019-05-19T16:33:26.601Z,14.97
2019-05-19T16:35:59.987Z,12.53
2019-05-19T16:38:33.307Z,13.25
2019-05-19T16:41:08.238Z,12.82
2019-05-19T16:43:41.606Z,11.85
2019-05-19T16:46:15.124Z,12.85
2019-05-19T16:48:48.480Z,12.10
2019-05-19T16:51:22.918Z,11.35
2019-05-19T16:53:56.295Z,13.90
2019-05-19T16:56:29.639Z,11.53
2019-05-19T16:59:03.003Z,11.85
2019-05-19T17:01:37.075Z,13.22
2019-05-19T17:04:12.101Z,11.75
2019-05-19T17:06:47.131Z,11.15
2019-05-19T17:09:20.667Z,11.43
2019-05-19T17:11:54.115Z,11.10
2019-05-19T17:14:28.623Z,11.25
2019-05-19T17:17:01.981Z,13.43
2019-05-19T17:19:35.313Z,10.85
2019-05-19T17:22:10.406Z,11.25
2019-05-19T17:24:43.751Z,11.08
2019-05-19T17:27:17.098Z,11.03
2019-05-19T17:29:50.404Z,11.05
2019-05-19T17:32:23.785Z,11.53
2019-05-19T17:34:57.197Z,9.90
2019-05-19T17:37:31.155Z,13.43
2019-05-19T17:40:04.952Z,11.78
2019-05-19T17:42:38.311Z,10.93
2019-05-19T17:45:11.715Z,10.82
2019-05-19T17:47:45.097Z,10.20
2019-05-19T17:50:30.022Z,10.43
2019-05-19T17:53:03.354Z,10.50
2019-05-19T17:55:36.681Z,10.30
2019-05-19T17:58:10.039Z,10.75
2019-05-19T18:00:44.308Z,12.63
2019-05-19T18:03:17.856Z,11.65
2019-05-19T18:05:51.179Z,12.28
2019-05-19T18:08:24.710Z,10.98
2019-05-19T18:10:58.190Z,10.95
2019-05-19T18:13:31.618Z,10.95
2019-05-19T18:16:04.938Z,11.78
2019-05-19T18:18:39.216Z,11.97
2019-05-19T18:21:12.640Z,13.87
2019-05-19T18:23:45.969Z,11.57
2019-05-19T18:26:19.310Z,12.25
2019-05-19T18:28:52.619Z,11.03
2019-05-19T18:31:25.981Z,11.65
2019-05-19T18:33:59.314Z,10.65
2019-05-19T18:36:32.706Z,11.00
2019-05-19T18:39:06.150Z,11.25
2019-05-19T18:41:39.568Z,11.08
2019-05-19T18:44:12.928Z,11.57
2019-05-19T18:46:46.284Z,10.80
2019-05-19T18:49:19.621Z,11.63
2019-05-19T18:51:52.984Z,10.48
2019-05-19T18:54:26.301Z,10.85
2019-05-19T18:57:00.822Z,11.00
2019-05-19T18:59:46.565Z,11.03
2019-05-19T19:02:09.205Z,10.95
2019-05-19T19:04:42.537Z,10.43
2019-05-19T19:07:15.870Z,10.20
2019-05-19T19:09:49.230Z,10.90
2019-05-19T19:12:23.886Z,12.75
2019-05-19T19:14:57.529Z,10.20
2019-05-19T19:17:30.882Z,10.18
2019-05-19T19:20:07.497Z,10.75
2019-05-19T19:22:41.030Z,11.20
2019-05-19T19:25:14.375Z,10.03
2019-05-19T19:27:47.775Z,10.82
2019-05-19T19:30:21.210Z,9.55
2019-05-19T19:32:54.523Z,10.53
2019-05-19T19:35:38.301Z,10.05
2019-05-19T19:38:03.236Z,10.25
2019-05-19T19:40:36.676Z,11.10
2019-05-19T19:43:09.987Z,10.18
2019-05-19T19:45:43.421Z,10.25
2019-05-19T19:48:18.345Z,10.93
2019-05-19T19:50:51.757Z,11.45
2019-05-19T19:53:25.081Z,11.78
2019-05-19T19:55:58.433Z,11.08
2019-05-19T19:58:31.805Z,11.83
2019-05-19T20:01:05.154Z,11.78
2019-05-19T20:03:40.263Z,10.90
2019-05-19T20:06:13.904Z,10.18
2019-05-19T20:08:47.315Z,13.72
2019-05-19T20:11:20.690Z,10.95
2019-05-19T20:13:54.050Z,11.75
2019-05-19T20:16:28.501Z,12.20
2019-05-19T20:19:01.833Z,11.03
2019-05-19T20:21:35.177Z,11.63
2019-05-19T20:24:08.537Z,10.82
2019-05-19T20:26:42.013Z,10.68
2019-05-19T20:29:15.388Z,11.18
2019-05-19T20:31:48.883Z,9.58
2019-05-19T20:34:22.264Z,9.73
2019-05-19T20:36:55.623Z,11.03
2019-05-19T20:39:28.970Z,9.03
2019-05-19T20:42:02.356Z,8.90
2019-05-19T20:44:35.701Z,8.60
2019-05-19T20:47:09.062Z,8.53
2019-05-19T20:49:42.387Z,8.13
2019-05-19T20:52:16.004Z,8.85
2019-05-19T20:54:49.233Z,7.97
2019-05-19T20:57:22.917Z,7.60
2019-05-19T20:59:56.436Z,7.28
2019-05-19T21:02:29.961Z,7.20
2019-05-19T21:05:04.232Z,7.42
2019-05-19T21:07:37.850Z,7.42
2019-05-19T21:10:12.270Z,8.28
2019-05-19T21:12:45.620Z,8.50
2019-05-19T21:15:19.112Z,10.30
2019-05-19T21:17:52.454Z,9.45
2019-05-19T21:20:25.959Z,11.47
2019-05-19T21:22:59.109Z,9.63
2019-05-19T21:25:33.114Z,8.43
2019-05-19T21:28:06.439Z,8.03
2019-05-19T21:30:39.942Z,8.80
2019-05-19T21:33:13.302Z,7.33
2019-05-19T21:35:46.615Z,7.45
2019-05-19T21:38:19.928Z,7.22
2019-05-19T21:40:53.275Z,7.17
2019-05-19T21:43:26.666Z,7.37
2019-05-19T21:46:00.038Z,8.53
2019-05-19T21:48:33.355Z,7.22
2019-05-19T21:51:06.724Z,6.97
2019-05-19T21:53:40.195Z,6.65
2019-05-19T21:56:13.538Z,7.62
2019-05-19T21:58:46.875Z,7.28
2019-05-19T22:01:23.182Z,8.50
2019-05-19T22:03:55.356Z,6.85
2019-05-19T22:06:29.784Z,6.10
2019-05-19T22:09:03.739Z,6.60
2019-05-19T22:11:37.159Z,6.78
2019-05-19T22:14:10.456Z,6.87
2019-05-19T22:16:43.962Z,6.33
2019-05-19T22:19:17.250Z,6.25
2019-05-19T22:21:50.628Z,6.95
2019-05-19T22:24:23.949Z,6.58
2019-05-19T22:26:57.327Z,6.35
2019-05-19T22:29:30.736Z,6.42
2019-05-19T22:32:04.065Z,5.92
2019-05-19T22:34:37.368Z,7.12
2019-05-19T22:37:10.728Z,6.30
2019-05-19T22:39:44.053Z,6.45
2019-05-19T22:42:18.947Z,7.28
2019-05-19T22:44:52.258Z,6.05
2019-05-19T22:47:27.163Z,6.42
2019-05-19T22:50:00.465Z,6.40
2019-05-19T22:52:33.793Z,6.08
2019-05-19T22:55:07.268Z,7.00
2019-05-19T22:57:40.642Z,6.20
2019-05-19T23:00:15.335Z,5.40
2019-05-19T23:02:50.276Z,5.62
2019-05-19T23:05:23.906Z,5.83
2019-05-19T23:07:57.246Z,5.30
2019-05-19T23:10:30.609Z,5.60
2019-05-19T23:13:03.933Z,5.35
2019-05-19T23:15:37.339Z,6.42
2019-05-19T23:18:10.713Z,5.62
2019-05-19T23:20:44.042Z,4.83
2019-05-19T23:23:17.370Z,5.22
2019-05-19T23:25:50.680Z,5.45
2019-05-19T23:28:24.025Z,5.22
2019-05-19T23:30:57.358Z,5.05
2019-05-19T23:33:30.701Z,4.95
2019-05-19T23:36:05.595Z,6.00
2019-05-19T23:38:40.536Z,5.10
2019-05-19T23:41:13.830Z,5.33
2019-05-19T23:43:47.147Z,4.75
2019-05-19T23:46:20.493Z,4.97
2019-05-19T23:48:53.792Z,4.53
2019-05-19T23:51:28.312Z,4.78
2019-05-19T23:54:01.634Z,4.60
2019-05-19T23:56:34.971Z,5.70
2019-05-19T23:59:08.297Z,5.25
